Terminal Aerodrome Forecast
Issued by NWS

Home | Current Version | Previous Version | Text Only | Print | Product List | Glossary On
Versions: 1 2 3 4 5 6 7 8 9 10 11 12 13 14 15 16 17 18 19 20 21 22 23 24 25 26 27 28 29 30 31 32 33 34 35 36 37 38 39 40 41 42 43 44 45
000
FTUS44 KMOB 191139
TAFBFM
TAF
KBFM 191139Z 1912/2012 35003KT P6SM VCTS BKN015CB BKN025
      TEMPO 1912/1913 3SM TSRA SCT009 BKN025CB
     FM191300 21008KT P6SM BKN009 OVC025
     FM191800 20015KT P6SM FEW050=

USA.gov is the U.S. government's official web portal to all federal, state and local government web resources and services.